Time;durP1;ratioP1;P1;durP2;ratioP2;P2;SDS_P1;SDS_P2;PMS_P1;PMS_P2;Temp;Humidity;BMP_temperature;BMP_pressure;BME280_temperature;BME280_humidity;BME280_pressure;Samples;Min_cycle;Max_cycle;Signal;HPM_P1;HPM_P2
2022/06/27 00:00:31;;;;;;;2.22;2.13;;;20.20;99.90;;;;;;5035556;28;20184;-74
2022/06/27 00:02:56;;;;;;;2.63;2.53;;;20.20;99.90;;;;;;5043420;28;20294;-73
2022/06/27 00:05:22;;;;;;;2.33;2.10;;;20.20;99.90;;;;;;5052149;28;20230;-73
2022/06/27 00:07:47;;;;;;;2.50;2.30;;;20.20;99.90;;;;;;5036901;28;20215;-73
2022/06/27 00:10:13;;;;;;;2.45;2.28;;;20.10;99.90;;;;;;5046181;28;20259;-73
2022/06/27 00:12:40;;;;;;;2.30;2.20;;;20.10;99.90;;;;;;5051663;28;20180;-73
2022/06/27 00:15:07;;;;;;;2.50;2.40;;;20.00;99.90;;;;;;5037874;28;20223;-73
2022/06/27 00:17:32;;;;;;;2.15;2.03;;;20.00;99.90;;;;;;5012174;28;20186;-73
2022/06/27 00:19:58;;;;;;;2.58;2.38;;;19.90;99.90;;;;;;5012350;28;20175;-73
2022/06/27 00:22:25;;;;;;;2.55;2.45;;;19.80;99.90;;;;;;5011867;28;20327;-73
2022/06/27 00:24:51;;;;;;;2.10;2.00;;;19.80;99.90;;;;;;5011951;28;20648;-73
2022/06/27 00:27:17;;;;;;;2.25;2.15;;;19.70;99.90;;;;;;5038058;28;20187;-73
2022/06/27 00:29:43;;;;;;;2.20;2.10;;;19.70;99.90;;;;;;5049871;28;20176;-73
2022/06/27 00:32:09;;;;;;;2.50;2.30;;;19.70;99.90;;;;;;5026996;28;20193;-73
2022/06/27 00:34:35;;;;;;;3.30;2.33;;;19.70;99.90;;;;;;5012026;28;20624;-73
2022/06/27 00:37:00;;;;;;;2.58;2.38;;;19.70;99.90;;;;;;5012174;28;20197;-73
2022/06/27 00:39:26;;;;;;;2.83;2.60;;;19.70;99.90;;;;;;5011900;28;20177;-73
2022/06/27 00:41:52;;;;;;;2.53;2.42;;;19.70;99.90;;;;;;5017268;28;20221;-74
2022/06/27 00:44:37;;;;;;;2.30;2.20;;;19.60;99.90;;;;;;5043208;28;20188;-74
2022/06/27 00:47:05;;;;;;;2.70;2.50;;;19.60;99.90;;;;;;5051566;28;20172;-74
2022/06/27 00:49:32;;;;;;;2.90;2.63;;;19.60;99.90;;;;;;5039962;28;20513;-74
2022/06/27 00:51:58;;;;;;;2.50;2.40;;;19.60;99.90;;;;;;5039353;28;20224;-74
2022/06/27 00:54:24;;;;;;;2.08;1.98;;;19.60;99.90;;;;;;5047046;28;20207;-73
2022/06/27 00:56:51;;;;;;;2.45;2.35;;;19.60;99.90;;;;;;5028677;28;20193;-73
2022/06/27 00:59:18;;;;;;;2.47;2.38;;;19.50;99.90;;;;;;5018175;28;20263;-74
2022/06/27 01:01:43;;;;;;;3.00;2.38;;;19.50;99.90;;;;;;5041172;28;20188;-74
2022/06/27 01:04:09;;;;;;;2.40;2.30;;;19.40;99.90;;;;;;5031274;28;20275;-73
2022/06/27 01:06:35;;;;;;;2.40;2.30;;;19.50;99.90;;;;;;5030509;28;20181;-73
2022/06/27 01:09:00;;;;;;;3.25;2.22;;;19.50;99.90;;;;;;5027696;28;20260;-73
2022/06/27 01:11:26;;;;;;;2.92;2.42;;;19.50;99.90;;;;;;5024037;28;20170;-73
2022/06/27 01:13:52;;;;;;;2.70;2.50;;;19.60;99.90;;;;;;5024918;28;20600;-73
2022/06/27 01:16:18;;;;;;;3.83;2.22;;;19.50;99.90;;;;;;5025588;28;20178;-74
2022/06/27 01:18:44;;;;;;;2.50;2.40;;;19.50;99.90;;;;;;5023908;28;20252;-74
2022/06/27 01:21:22;;;;;;;2.72;2.53;;;19.40;99.90;;;;;;5024317;28;20184;-73
2022/06/27 01:23:48;;;;;;;2.45;2.35;;;19.40;99.90;;;;;;5025587;28;20212;-74
2022/06/27 01:26:15;;;;;;;2.83;2.63;;;19.40;99.90;;;;;;5031157;28;20659;-74
2022/06/27 01:28:40;;;;;;;2.75;2.65;;;19.50;99.90;;;;;;5034982;28;20172;-73
2022/06/27 01:31:06;;;;;;;2.75;2.40;;;19.50;99.90;;;;;;5033381;28;20250;-72
2022/06/27 01:33:32;;;;;;;2.33;2.20;;;19.40;99.90;;;;;;5023591;28;20229;-73
2022/06/27 01:38:42;;;;;;;2.80;2.60;;;19.20;99.90;;;;;;5025434;28;20680;-72
2022/06/27 01:41:08;;;;;;;2.30;2.20;;;19.10;99.90;;;;;;5023707;28;20189;-72
2022/06/27 01:43:34;;;;;;;2.90;2.70;;;19.10;99.90;;;;;;5016779;28;20212;-72
2022/06/27 01:46:00;;;;;;;2.72;2.53;;;19.00;99.90;;;;;;5015116;28;20181;-73
2022/06/27 01:48:28;;;;;;;2.72;2.55;;;19.00;99.90;;;;;;5013816;28;20191;-72
2022/06/27 01:50:57;;;;;;;2.85;2.65;;;19.00;99.90;;;;;;5014987;28;20188;-72
2022/06/27 01:53:25;;;;;;;2.58;2.38;;;19.00;99.90;;;;;;5014635;28;20283;-72
2022/06/27 01:55:51;;;;;;;2.90;2.70;;;19.10;99.90;;;;;;5015119;28;20231;-72
2022/06/27 01:58:17;;;;;;;3.85;2.78;;;19.10;99.90;;;;;;5027212;28;20606;-72
2022/06/27 02:00:43;;;;;;;3.75;2.50;;;19.20;99.90;;;;;;5047417;28;20633;-71
2022/06/27 02:03:08;;;;;;;2.10;2.00;;;19.20;99.90;;;;;;5045853;28;20203;-71
2022/06/27 02:05:34;;;;;;;2.53;2.40;;;19.20;99.90;;;;;;5054571;28;20705;-71
2022/06/27 02:08:03;;;;;;;3.60;2.40;;;19.20;99.90;;;;;;5046964;28;20229;-72
2022/06/27 02:10:29;;;;;;;2.85;2.50;;;19.20;99.90;;;;;;5046180;28;20196;-72
2022/06/27 02:12:55;;;;;;;2.50;2.40;;;19.20;99.90;;;;;;5054174;28;20203;-71
2022/06/27 02:15:21;;;;;;;2.40;2.30;;;19.20;99.90;;;;;;5046718;28;20368;-72
2022/06/27 02:17:47;;;;;;;2.35;2.25;;;19.20;99.90;;;;;;5037927;28;20196;-72
2022/06/27 02:20:13;;;;;;;2.70;2.50;;;19.10;99.90;;;;;;5033350;28;20666;-72
2022/06/27 02:22:39;;;;;;;2.72;2.47;;;19.10;99.90;;;;;;5033953;28;20188;-73
2022/06/27 02:25:06;;;;;;;3.05;2.67;;;19.00;99.90;;;;;;5034334;28;20188;-72
2022/06/27 02:27:34;;;;;;;2.35;2.25;;;19.00;99.90;;;;;;5017989;28;20641;-72
2022/06/27 02:30:00;;;;;;;2.47;2.22;;;19.10;99.90;;;;;;5022352;28;20593;-72
2022/06/27 02:32:27;;;;;;;2.53;2.30;;;19.10;99.90;;;;;;5045497;28;20182;-72
2022/06/27 02:34:56;;;;;;;2.45;2.35;;;19.10;99.90;;;;;;5041797;28;20259;-72
2022/06/27 02:37:23;;;;;;;2.60;2.40;;;19.00;99.90;;;;;;5014502;28;20197;-73
2022/06/27 02:39:49;;;;;;;2.33;2.20;;;19.00;99.90;;;;;;5014456;28;20181;-73
2022/06/27 02:42:20;;;;;;;3.83;2.25;;;19.00;99.90;;;;;;5013930;28;20193;-73
2022/06/27 02:44:50;;;;;;;2.40;2.30;;;19.00;99.90;;;;;;5027145;28;20287;-73
2022/06/27 02:47:20;;;;;;;2.42;2.33;;;19.00;99.90;;;;;;5033838;28;20259;-73
2022/06/27 02:49:47;;;;;;;2.45;2.22;;;18.80;99.90;;;;;;5033961;28;20197;-74
2022/06/27 02:52:26;;;;;;;2.10;2.00;;;18.80;99.90;;;;;;5035632;28;20180;-73
2022/06/27 02:55:01;;;;;;;2.30;2.20;;;18.80;99.90;;;;;;5033485;28;20212;-74
2022/06/27 02:57:47;;;;;;;2.60;2.40;;;18.80;99.90;;;;;;5042036;28;20259;-73
2022/06/27 03:00:13;;;;;;;2.60;2.40;;;18.80;99.90;;;;;;5036163;28;20183;-73
2022/06/27 03:02:41;;;;;;;2.28;2.17;;;18.80;99.90;;;;;;5033176;28;20211;-73
2022/06/27 03:05:07;;;;;;;2.85;2.47;;;18.70;99.90;;;;;;5047035;28;20226;-73
2022/06/27 03:07:43;;;;;;;2.88;2.70;;;18.70;99.90;;;;;;5028685;28;20174;-73
2022/06/27 03:10:12;;;;;;;2.83;2.63;;;18.60;99.90;;;;;;5013852;28;20197;-73
2022/06/27 03:12:39;;;;;;;2.67;2.47;;;18.60;99.90;;;;;;5013338;28;20173;-73
2022/06/27 03:15:05;;;;;;;2.60;2.40;;;18.50;99.90;;;;;;5023095;28;20561;-76
2022/06/27 03:17:31;;;;;;;3.17;2.67;;;18.80;99.90;;;;;;5040013;28;20683;-74
2022/06/27 03:19:57;;;;;;;2.63;2.47;;;18.90;99.90;;;;;;5033276;28;20188;-76
2022/06/27 03:22:23;;;;;;;3.15;2.95;;;19.00;99.90;;;;;;5032853;28;20203;-75
2022/06/27 03:24:48;;;;;;;2.60;2.40;;;19.20;99.90;;;;;;5023471;28;20205;-75
2022/06/27 03:27:14;;;;;;;3.53;3.25;;;19.20;99.90;;;;;;5013223;28;20253;-75
2022/06/27 03:29:39;;;;;;;3.10;2.90;;;19.40;99.90;;;;;;5012909;28;20170;-76
2022/06/27 03:32:06;;;;;;;3.63;3.38;;;19.40;99.90;;;;;;5012892;28;20177;-75
2022/06/27 03:34:32;;;;;;;3.13;2.83;;;19.40;99.90;;;;;;5013062;28;20212;-76
2022/06/27 03:36:58;;;;;;;2.70;2.60;;;19.40;99.90;;;;;;5013065;28;20173;-74
2022/06/27 03:39:24;;;;;;;3.30;2.80;;;19.40;99.90;;;;;;5013030;28;20170;-75
2022/06/27 03:41:51;;;;;;;4.07;2.88;;;19.50;99.90;;;;;;5035917;28;20591;-75
2022/06/27 03:44:17;;;;;;;3.40;3.20;;;19.60;99.90;;;;;;5047514;28;20585;-75
2022/06/27 03:46:43;;;;;;;3.20;2.92;;;19.60;99.90;;;;;;5052409;28;20168;-74
2022/06/27 03:51:55;;;;;;;3.17;2.85;;;19.80;99.90;;;;;;5012557;28;20595;-75
2022/06/27 03:54:21;;;;;;;3.00;2.80;;;19.80;99.90;;;;;;5012564;28;20189;-75
2022/06/27 03:56:46;;;;;;;3.22;3.03;;;20.00;99.90;;;;;;5027442;28;20255;-74
2022/06/27 03:59:12;;;;;;;4.47;2.97;;;20.00;99.90;;;;;;5034916;28;20222;-75
2022/06/27 04:01:38;;;;;;;2.92;2.72;;;20.10;99.90;;;;;;5044051;28;20271;-75
2022/06/27 04:04:04;;;;;;;3.38;2.97;;;20.10;99.90;;;;;;5025803;28;20209;-75
2022/06/27 04:06:30;;;;;;;2.83;2.63;;;20.20;99.90;;;;;;5012530;28;20228;-75
2022/06/27 04:08:56;;;;;;;3.25;3.00;;;20.20;99.90;;;;;;5012371;28;20240;-75
2022/06/27 04:11:21;;;;;;;3.17;2.97;;;20.20;99.90;;;;;;5012463;28;20193;-75
2022/06/27 04:13:47;;;;;;;4.65;3.30;;;20.20;99.90;;;;;;5012158;28;20193;-75
2022/06/27 04:16:13;;;;;;;3.20;3.00;;;20.30;99.90;;;;;;5012365;28;20173;-74
2022/06/27 04:18:38;;;;;;;3.55;2.92;;;20.20;99.90;;;;;;5012391;28;20687;-75
2022/06/27 04:21:04;;;;;;;3.00;2.90;;;20.20;99.90;;;;;;5021555;28;20183;-75
2022/06/27 04:23:29;;;;;;;3.25;3.05;;;20.20;99.90;;;;;;5043046;28;20200;-75
2022/06/27 04:25:55;;;;;;;3.10;2.70;;;20.20;99.90;;;;;;5051858;28;20221;-75
2022/06/27 04:28:21;;;;;;;3.08;2.88;;;20.20;99.90;;;;;;5051853;28;20586;-75
2022/06/27 04:30:47;;;;;;;3.17;2.88;;;20.10;99.90;;;;;;5012278;28;20273;-76
2022/06/27 04:33:13;;;;;;;5.30;3.03;;;20.20;99.90;;;;;;5011798;28;20710;-75
2022/06/27 04:35:41;;;;;;;4.13;3.00;;;20.20;99.90;;;;;;5012155;28;20182;-75
2022/06/27 04:38:06;;;;;;;2.97;2.78;;;20.20;99.90;;;;;;5012526;28;20687;-75
2022/06/27 04:40:33;;;;;;;3.22;2.95;;;20.30;99.90;;;;;;5011900;28;20177;-75
2022/06/27 04:42:59;;;;;;;3.00;2.78;;;20.30;99.90;;;;;;5011302;28;20629;-75
2022/06/27 04:45:27;;;;;;;3.13;2.92;;;20.30;99.90;;;;;;5011927;28;20176;-75
2022/06/27 04:47:53;;;;;;;4.03;3.20;;;20.40;99.90;;;;;;5011988;28;20178;-76
2022/06/27 04:50:21;;;;;;;4.05;3.00;;;20.50;99.90;;;;;;5012158;28;20256;-76
2022/06/27 04:52:48;;;;;;;3.00;2.90;;;20.50;99.90;;;;;;5011521;28;21914;-75
2022/06/27 04:55:15;;;;;;;3.20;2.90;;;20.60;99.90;;;;;;5011958;28;20272;-73
2022/06/27 04:57:42;;;;;;;3.42;3.17;;;20.70;99.90;;;;;;5011894;28;20173;-73
2022/06/27 05:00:11;;;;;;;3.90;2.80;;;20.70;99.90;;;;;;5011982;28;20177;-73
2022/06/27 05:02:36;;;;;;;3.00;2.80;;;20.80;99.90;;;;;;5030823;28;20200;-74
2022/06/27 05:05:06;;;;;;;3.40;3.17;;;20.90;99.90;;;;;;5031472;28;20660;-74
2022/06/27 05:07:31;;;;;;;3.58;3.03;;;21.00;99.90;;;;;;5020934;28;20185;-73
2022/06/27 05:09:58;;;;;;;3.72;3.28;;;21.10;99.90;;;;;;5011787;28;20173;-74
2022/06/27 05:12:24;;;;;;;3.38;3.20;;;21.20;99.90;;;;;;5011708;28;20525;-74
2022/06/27 05:14:54;;;;;;;2.80;2.70;;;21.40;99.90;;;;;;5011625;28;20197;-73
2022/06/27 05:17:21;;;;;;;3.20;3.00;;;21.50;99.90;;;;;;5011785;28;20187;-73
2022/06/27 05:19:46;;;;;;;3.63;3.28;;;21.60;99.90;;;;;;5011303;28;20187;-73
2022/06/27 05:22:12;;;;;;;3.00;2.80;;;21.80;99.90;;;;;;5011439;28;20668;-73
2022/06/27 05:24:39;;;;;;;3.20;2.88;;;21.90;99.90;;;;;;5018116;28;20730;-73
2022/06/27 05:27:05;;;;;;;3.30;3.00;;;22.00;99.90;;;;;;5031366;28;20713;-72
2022/06/27 05:29:30;;;;;;;2.78;2.67;;;22.10;99.90;;;;;;5025525;28;20189;-72
2022/06/27 05:31:56;;;;;;;3.35;2.90;;;22.20;99.90;;;;;;5011130;28;20690;-74
2022/06/27 05:34:22;;;;;;;3.08;2.78;;;22.40;99.90;;;;;;5022702;28;20246;-73
2022/06/27 05:36:48;;;;;;;3.50;3.20;;;22.50;99.90;;;;;;5031989;28;20586;-75
2022/06/27 05:39:14;;;;;;;2.70;2.60;;;22.70;99.90;;;;;;5023323;28;20199;-75
2022/06/27 05:41:41;;;;;;;3.65;2.40;;;22.90;99.90;;;;;;5038355;28;20207;-76
2022/06/27 05:44:07;;;;;;;3.05;2.92;;;23.00;99.90;;;;;;5038407;28;20212;-76
2022/06/27 05:46:33;;;;;;;3.30;3.05;;;23.10;99.90;;;;;;5012497;28;20181;-76
2022/06/27 05:49:01;;;;;;;3.85;2.83;;;23.20;99.90;;;;;;5020444;28;20685;-75
2022/06/27 05:51:29;;;;;;;2.78;2.60;;;23.30;99.90;;;;;;5024991;28;20574;-75
2022/06/27 05:53:57;;;;;;;4.32;3.28;;;23.30;99.90;;;;;;5025956;28;20568;-74
2022/06/27 05:56:24;;;;;;;3.50;2.78;;;23.40;99.90;;;;;;5029461;28;20211;-75
2022/06/27 05:58:50;;;;;;;3.38;2.88;;;23.50;99.90;;;;;;5034578;28;20203;-74
2022/06/27 06:01:17;;;;;;;3.70;3.30;;;23.60;99.90;;;;;;5034499;28;20545;-74
2022/06/27 06:03:43;;;;;;;4.72;2.90;;;23.80;99.90;;;;;;5034136;28;20212;-75
2022/06/27 06:06:08;;;;;;;2.65;2.55;;;24.00;99.90;;;;;;5027099;28;20180;-75
2022/06/27 06:08:36;;;;;;;4.00;3.03;;;24.10;99.90;;;;;;5022310;28;20226;-75
2022/06/27 06:11:02;;;;;;;3.33;2.50;;;24.30;99.90;;;;;;5023056;28;20530;-76
2022/06/27 06:13:28;;;;;;;3.65;2.55;;;24.40;99.90;;;;;;5029794;28;20200;-79
2022/06/27 06:15:54;;;;;;;2.90;2.70;;;24.40;99.90;;;;;;5035246;28;20222;-78
2022/06/27 06:18:21;;;;;;;2.92;2.72;;;24.50;99.90;;;;;;5033151;28;20597;-77
2022/06/27 06:20:47;;;;;;;2.85;2.65;;;24.50;99.90;;;;;;5034263;28;20223;-78
2022/06/27 06:23:13;;;;;;;3.38;3.00;;;24.60;99.90;;;;;;5032777;28;20213;-78
2022/06/27 06:25:39;;;;;;;3.47;2.83;;;24.60;99.90;;;;;;5029850;28;20200;-78
2022/06/27 06:28:05;;;;;;;2.80;2.70;;;24.70;99.90;;;;;;5014660;28;20173;-78
2022/06/27 06:30:31;;;;;;;4.50;2.70;;;24.60;99.90;;;;;;5014325;28;20181;-77
2022/06/27 06:33:04;;;;;;;2.65;2.45;;;24.70;99.90;;;;;;5014039;28;20197;-77
2022/06/27 06:35:34;;;;;;;2.88;2.47;;;24.60;99.90;;;;;;5017121;28;20173;-77
2022/06/27 06:38:01;;;;;;;3.20;2.90;;;24.60;99.90;;;;;;5013970;28;20179;-76
2022/06/27 06:40:28;;;;;;;3.13;2.92;;;24.60;99.90;;;;;;5014037;28;20707;-77
2022/06/27 06:42:54;;;;;;;3.20;2.90;;;24.70;99.90;;;;;;5013689;28;20205;-76
2022/06/27 06:45:20;;;;;;;2.95;2.80;;;24.60;99.90;;;;;;5014560;28;20188;-77
2022/06/27 06:47:48;;;;;;;2.97;2.78;;;24.70;99.90;;;;;;5015129;28;20161;-75
2022/06/27 06:50:18;;;;;;;3.03;2.83;;;24.70;99.90;;;;;;5015641;28;20172;-76
2022/06/27 06:52:51;;;;;;;2.90;2.70;;;24.80;99.90;;;;;;5015858;28;20652;-76
2022/06/27 06:55:20;;;;;;;4.13;2.90;;;24.90;99.90;;;;;;5014435;28;20181;-77
2022/06/27 06:57:45;;;;;;;4.57;2.90;;;25.00;99.90;;;;;;5017977;28;20215;-77
2022/06/27 07:00:11;;;;;;;3.42;2.88;;;25.10;99.90;;;;;;5021149;28;20648;-77
2022/06/27 07:02:38;;;;;;;2.92;2.70;;;25.10;99.90;;;;;;5017335;28;20679;-76
2022/06/27 07:05:08;;;;;;;4.32;3.08;;;25.30;99.90;;;;;;5021772;28;20187;-83
2022/06/27 07:07:34;;;;;;;3.05;2.85;;;25.40;99.90;;;;;;5029354;28;20176;-79
2022/06/27 07:10:02;;;;;;;3.17;2.97;;;25.40;99.90;;;;;;5031918;28;20663;-80
2022/06/27 07:12:29;;;;;;;2.90;2.70;;;25.50;99.90;;;;;;5028036;28;20181;-77
2022/06/27 07:14:55;;;;;;;3.33;3.03;;;25.50;99.90;;;;;;5027321;28;20190;-80
2022/06/27 07:17:24;;;;;;;3.20;3.00;;;25.60;99.90;;;;;;5018185;28;20193;-81
2022/06/27 07:19:52;;;;;;;2.97;2.72;;;25.60;99.90;;;;;;5028315;28;20276;-72
2022/06/27 07:22:19;;;;;;;3.95;2.63;;;25.70;99.90;;;;;;5028870;28;20674;-70
2022/06/27 07:24:47;;;;;;;3.00;2.80;;;25.70;99.90;;;;;;5042771;28;20199;-69
2022/06/27 07:27:15;;;;;;;9.05;3.55;;;25.80;99.90;;;;;;5034275;28;20617;-71
2022/06/27 07:29:41;;;;;;;2.97;2.88;;;25.80;99.90;;;;;;5031444;28;20186;-74
2022/06/27 07:32:08;;;;;;;3.25;3.03;;;26.00;99.90;;;;;;5030041;28;20184;-74
2022/06/27 07:34:34;;;;;;;3.10;2.85;;;26.00;99.90;;;;;;5052734;28;20199;-74
2022/06/27 07:37:00;;;;;;;3.92;2.65;;;26.00;99.90;;;;;;5030046;28;20248;-73
2022/06/27 07:39:26;;;;;;;3.40;3.17;;;26.10;99.90;;;;;;5022751;28;20260;-73
2022/06/27 07:41:53;;;;;;;3.38;3.17;;;26.20;99.90;;;;;;5021212;28;20196;-72
2022/06/27 07:44:19;;;;;;;3.35;3.15;;;26.20;99.90;;;;;;5024385;28;20200;-73
2022/06/27 07:46:44;;;;;;;3.22;3.00;;;26.20;99.90;;;;;;5030994;28;20177;-73
2022/06/27 07:49:10;;;;;;;3.35;3.15;;;26.20;99.90;;;;;;5024623;28;20255;-73
2022/06/27 07:51:35;;;;;;;3.40;3.20;;;26.20;99.90;;;;;;5022406;28;20186;-73
2022/06/27 07:54:02;;;;;;;5.63;3.47;;;26.30;99.90;;;;;;5022238;28;20201;-73
2022/06/27 07:56:27;;;;;;;3.88;3.00;;;26.30;99.90;;;;;;5020991;28;20186;-72
2022/06/27 07:58:53;;;;;;;3.08;2.88;;;26.40;99.90;;;;;;5022640;28;20647;-74
2022/06/27 08:01:20;;;;;;;3.65;3.42;;;26.50;99.90;;;;;;5022717;28;20181;-72
2022/06/27 08:03:49;;;;;;;3.53;3.33;;;26.70;99.90;;;;;;5020491;28;20633;-75
2022/06/27 08:06:22;;;;;;;3.08;2.90;;;26.70;99.90;;;;;;5021338;28;20185;-74
2022/06/27 08:08:54;;;;;;;4.22;3.30;;;26.70;99.90;;;;;;5021084;28;20648;-74
2022/06/27 08:11:24;;;;;;;2.70;2.60;;;26.60;99.90;;;;;;5024687;28;20173;-74
2022/06/27 08:13:56;;;;;;;4.07;3.00;;;26.60;99.90;;;;;;5029004;28;20513;-75
2022/06/27 08:16:25;;;;;;;2.97;2.80;;;26.60;99.90;;;;;;5020656;28;20239;-75
2022/06/27 08:18:52;;;;;;;3.22;2.92;;;26.70;99.90;;;;;;5022598;28;20263;-77
2022/06/27 08:21:21;;;;;;;3.22;3.03;;;26.70;99.90;;;;;;5020756;28;20186;-78
2022/06/27 08:23:48;;;;;;;3.25;3.05;;;26.70;99.90;;;;;;5019545;28;20680;-76
2022/06/27 08:26:14;;;;;;;2.90;2.72;;;26.80;99.90;;;;;;5022025;28;20235;-77
2022/06/27 08:28:42;;;;;;;3.17;3.08;;;26.70;99.90;;;;;;5017185;28;20169;-74
2022/06/27 08:31:10;;;;;;;3.30;3.10;;;26.70;99.90;;;;;;5010799;28;20196;-74
2022/06/27 08:33:37;;;;;;;3.17;2.88;;;26.70;99.90;;;;;;5012779;28;20617;-76
2022/06/27 08:36:04;;;;;;;3.20;3.00;;;26.80;99.90;;;;;;5021539;28;20185;-75
2022/06/27 08:38:32;;;;;;;2.90;2.80;;;27.00;99.90;;;;;;5022090;28;20181;-74
2022/06/27 08:40:58;;;;;;;3.33;3.10;;;27.20;99.90;;;;;;5024673;28;20173;-74
2022/06/27 08:43:26;;;;;;;2.90;2.70;;;27.30;99.90;;;;;;5021739;28;20242;-74
2022/06/27 08:45:53;;;;;;;3.05;2.85;;;27.40;99.90;;;;;;5020471;28;20734;-73
2022/06/27 08:48:19;;;;;;;4.50;3.28;;;27.50;99.90;;;;;;5021990;28;20169;-73
2022/06/27 08:50:48;;;;;;;3.22;3.10;;;27.50;99.90;;;;;;5022140;28;20244;-74
2022/06/27 08:53:15;;;;;;;3.00;2.85;;;27.40;99.90;;;;;;5020481;28;20196;-75
2022/06/27 08:55:48;;;;;;;3.00;2.88;;;27.40;99.90;;;;;;5027252;28;20172;-75
2022/06/27 08:58:14;;;;;;;3.55;3.25;;;27.40;99.90;;;;;;5029683;28;20202;-75
2022/06/27 09:00:45;;;;;;;4.45;2.83;;;27.50;99.90;;;;;;5025232;28;20184;-75
2022/06/27 09:03:12;;;;;;;3.35;3.17;;;27.80;99.90;;;;;;5020868;28;20254;-75
2022/06/27 09:05:38;;;;;;;2.70;2.55;;;28.00;99.90;;;;;;5021475;28;20223;-75
2022/06/27 09:08:06;;;;;;;2.83;2.63;;;28.20;99.90;;;;;;5021643;28;20165;-74
2022/06/27 09:10:33;;;;;;;3.33;3.10;;;28.40;99.90;;;;;;5021504;28;20184;-73
2022/06/27 09:13:05;;;;;;;2.90;2.67;;;28.60;99.90;;;;;;5029430;28;20200;-72
2022/06/27 09:16:03;;;;;;;3.10;2.80;;;28.70;99.90;;;;;;5026947;28;20549;-73
2022/06/27 09:18:30;;;;;;;2.92;2.72;;;28.80;99.90;;;;;;5012029;28;20200;-74
2022/06/27 09:21:10;;;;;;;3.22;3.03;;;28.90;99.90;;;;;;5037456;28;20187;-73
2022/06/27 09:23:43;;;;;;;2.97;2.78;;;29.00;99.90;;;;;;5044423;28;20288;-73
2022/06/27 09:26:35;;;;;;;4.93;2.70;;;29.00;99.90;;;;;;5042980;28;20208;-74
2022/06/27 09:29:09;;;;;;;3.00;2.80;;;29.10;99.90;;;;;;5014313;28;20169;-75
2022/06/27 09:31:42;;;;;;;2.80;2.70;;;29.30;99.90;;;;;;5015160;28;20279;-74
2022/06/27 09:34:16;;;;;;;3.22;2.92;;;29.50;99.90;;;;;;5031585;28;20211;-76
2022/06/27 09:36:51;;;;;;;2.70;2.60;;;29.60;99.90;;;;;;5015160;28;20208;-74
2022/06/27 09:39:19;;;;;;;3.03;2.80;;;30.00;99.90;;;;;;5024151;28;20721;-75
2022/06/27 09:42:10;;;;;;;2.88;2.78;;;30.60;99.90;;;;;;5031921;28;20531;-75
2022/06/27 09:44:45;;;;;;;2.92;2.67;;;32.00;99.90;;;;;;5043142;28;20571;-74
2022/06/27 09:47:20;;;;;;;2.80;2.70;;;33.80;96.60;;;;;;5043978;28;20660;-75
2022/06/27 09:49:50;;;;;;;2.80;2.70;;;35.70;88.20;;;;;;5029895;28;20171;-71
2022/06/27 09:52:18;;;;;;;2.60;2.40;;;37.60;79.70;;;;;;5016483;28;20216;-72
2022/06/27 09:54:47;;;;;;;3.47;2.58;;;38.90;72.60;;;;;;5034339;28;20598;-71
2022/06/27 09:57:13;;;;;;;2.47;2.28;;;39.80;69.50;;;;;;5031498;28;20168;-71
2022/06/27 09:59:40;;;;;;;2.45;2.35;;;41.10;63.00;;;;;;5024645;28;20579;-70
2022/06/27 10:02:07;;;;;;;2.40;2.20;;;42.50;58.30;;;;;;5013980;28;20719;-70
2022/06/27 10:04:35;;;;;;;2.38;2.17;;;42.60;56.20;;;;;;5014648;28;20196;-71
2022/06/27 10:07:02;;;;;;;2.70;1.92;;;43.20;55.40;;;;;;5031777;28;20539;-71
2022/06/27 10:09:30;;;;;;;4.32;2.60;;;43.80;53.00;;;;;;5034328;28;20161;-71
2022/06/27 10:12:36;;;;;;;2.00;1.90;;;44.30;52.20;;;;;;5016764;28;20227;-71
2022/06/27 10:15:10;;;;;;;2.05;1.90;;;45.00;49.00;;;;;;5014607;28;20196;-71
2022/06/27 10:18:02;;;;;;;2.10;2.00;;;45.50;47.00;;;;;;5029565;28;20168;-71
2022/06/27 10:20:36;;;;;;;2.97;2.10;;;46.20;46.40;;;;;;5017962;28;20739;-71
2022/06/27 10:23:26;;;;;;;2.10;1.90;;;46.20;46.00;;;;;;5030363;28;20203;-71
2022/06/27 10:25:52;;;;;;;3.97;2.00;;;45.60;45.20;;;;;;5053400;28;20661;-74
2022/06/27 10:28:20;;;;;;;1.95;1.85;;;46.20;44.40;;;;;;5054199;28;20197;-76
2022/06/27 10:30:58;;;;;;;1.90;1.80;;;46.30;42.60;;;;;;5025855;28;20192;-76
2022/06/27 10:35:55;;;;;;;2.03;1.92;;;45.80;43.90;;;;;;5014177;28;20275;-74
2022/06/27 10:38:26;;;;;;;2.90;2.10;;;46.00;43.80;;;;;;5013930;28;20635;-75
2022/06/27 10:40:52;;;;;;;2.55;2.25;;;46.00;44.30;;;;;;5028473;28;20635;-74
2022/06/27 10:43:39;;;;;;;2.22;1.90;;;45.90;44.10;;;;;;5021325;28;20295;-76
2022/06/27 10:46:11;;;;;;;2.22;1.90;;;46.20;43.60;;;;;;5025873;28;20595;-75
2022/06/27 10:48:46;;;;;;;1.90;1.80;;;46.00;43.70;;;;;;5023980;28;20208;-76
2022/06/27 10:51:18;;;;;;;3.30;1.85;;;46.50;43.60;;;;;;5025074;28;20172;-76
2022/06/27 10:53:45;;;;;;;2.20;2.00;;;46.90;42.90;;;;;;5026722;28;20203;-76
2022/06/27 10:56:26;;;;;;;1.98;1.77;;;46.70;43.10;;;;;;5020174;28;20260;-76
2022/06/27 10:58:52;;;;;;;2.17;1.98;;;46.70;43.60;;;;;;5025218;28;20178;-76
2022/06/27 11:01:18;;;;;;;1.70;1.60;;;47.40;42.40;;;;;;5019927;28;20267;-76
2022/06/27 11:03:46;;;;;;;2.33;1.90;;;47.60;41.70;;;;;;5022931;28;20212;-75
2022/06/27 11:06:13;;;;;;;2.05;1.70;;;47.60;41.80;;;;;;5026954;28;20176;-76
2022/06/27 11:08:41;;;;;;;1.75;1.65;;;47.20;42.20;;;;;;5026849;28;20186;-76
2022/06/27 11:11:07;;;;;;;1.52;1.50;;;46.70;41.80;;;;;;5031901;28;20180;-77
2022/06/27 11:13:53;;;;;;;3.90;1.90;;;46.90;41.90;;;;;;5033151;28;20195;-77
2022/06/27 11:16:20;;;;;;;1.90;1.80;;;46.90;41.70;;;;;;5033324;28;20214;-77
2022/06/27 11:18:49;;;;;;;1.70;1.60;;;47.40;40.60;;;;;;5014047;28;20193;-77
2022/06/27 11:21:19;;;;;;;1.75;1.40;;;47.50;39.10;;;;;;5028846;28;20177;-75
2022/06/27 11:23:52;;;;;;;1.92;1.38;;;47.60;37.70;;;;;;5013106;28;20226;-76
2022/06/27 11:26:23;;;;;;;1.60;1.50;;;48.00;37.00;;;;;;5013301;28;20180;-77
2022/06/27 11:34:18;;;;;;;1.60;1.48;;;47.40;39.10;;;;;;5013162;28;20709;-75
2022/06/27 11:36:46;;;;;;;11.88;1.90;;;47.10;37.10;;;;;;5014349;28;20247;-76
2022/06/27 11:39:11;;;;;;;1.83;1.67;;;46.10;40.00;;;;;;5023972;28;20208;-77
2022/06/27 11:41:40;;;;;;;2.83;1.90;;;46.70;38.20;;;;;;5026405;28;20612;-77
2022/06/27 11:44:11;;;;;;;1.67;1.58;;;46.80;38.80;;;;;;5023479;28;20447;-76
2022/06/27 11:46:37;;;;;;;1.63;1.50;;;47.30;37.40;;;;;;5021826;28;20263;-77
2022/06/27 11:49:10;;;;;;;1.60;1.52;;;47.10;37.30;;;;;;5024360;28;20182;-76
2022/06/27 11:51:44;;;;;;;1.55;1.40;;;46.40;38.10;;;;;;5027475;28;20172;-77
2022/06/27 11:54:18;;;;;;;1.55;1.48;;;45.80;40.20;;;;;;5031122;28;20265;-78
2022/06/27 11:56:49;;;;;;;2.15;1.92;;;45.60;41.40;;;;;;5031629;28;20168;-78
2022/06/27 11:59:17;;;;;;;1.88;1.77;;;45.50;41.20;;;;;;5012437;28;20226;-77
2022/06/27 12:02:24;;;;;;;4.35;1.90;;;45.50;41.20;;;;;;5012280;28;20212;-78
2022/06/27 12:05:02;;;;;;;2.55;1.98;;;45.50;42.30;;;;;;5015117;28;20223;-77
2022/06/27 12:07:27;;;;;;;2.17;1.50;;;45.40;41.30;;;;;;5027607;28;20171;-78
2022/06/27 12:09:53;;;;;;;2.05;1.70;;;45.40;40.70;;;;;;5028703;28;20186;-78
2022/06/27 12:12:25;;;;;;;1.83;1.58;;;45.30;41.00;;;;;;5027684;28;20188;-78
2022/06/27 12:14:52;;;;;;;2.25;1.60;;;45.20;41.70;;;;;;5026245;28;20192;-78
2022/06/27 12:17:20;;;;;;;2.13;1.75;;;45.70;38.90;;;;;;5020364;28;20188;-77
2022/06/27 12:19:46;;;;;;;1.80;1.70;;;45.90;39.80;;;;;;5021281;28;20192;-76
2022/06/27 12:22:18;;;;;;;1.40;1.30;;;46.10;38.60;;;;;;5025790;28;20550;-77
2022/06/27 12:24:45;;;;;;;1.65;1.55;;;46.60;37.70;;;;;;5027108;28;20338;-77
2022/06/27 12:27:11;;;;;;;1.38;1.35;;;46.30;36.90;;;;;;5022449;28;20182;-78
2022/06/27 12:29:36;;;;;;;4.80;1.60;;;46.30;36.80;;;;;;5023603;28;20263;-79
2022/06/27 12:32:02;;;;;;;1.48;1.38;;;46.40;37.40;;;;;;5030149;28;20192;-79
2022/06/27 12:34:28;;;;;;;3.50;1.70;;;45.30;38.60;;;;;;5022880;28;20197;-78
2022/06/27 12:36:54;;;;;;;2.83;1.35;;;45.40;41.00;;;;;;5027241;28;20258;-77
2022/06/27 12:39:20;;;;;;;1.95;1.33;;;47.00;37.50;;;;;;5026539;28;20181;-77
2022/06/27 12:41:46;;;;;;;4.22;1.30;;;49.30;34.30;;;;;;5024218;28;20216;-79
2022/06/27 12:44:11;;;;;;;2.38;1.08;;;50.80;33.70;;;;;;5022299;28;20666;-78
2022/06/27 12:46:37;;;;;;;2.40;1.42;;;51.60;32.80;;;;;;5021100;28;20190;-78
2022/06/27 12:49:03;;;;;;;3.13;1.25;;;52.10;31.80;;;;;;5026757;28;20174;-81
2022/06/27 12:51:29;;;;;;;1.55;1.27;;;53.20;32.00;;;;;;5027626;28;20211;-79
2022/06/27 12:53:56;;;;;;;1.88;1.40;;;54.50;30.70;;;;;;5025462;28;20213;-78
2022/06/27 12:56:22;;;;;;;1.40;1.30;;;55.60;30.60;;;;;;5022775;28;20221;-78
2022/06/27 12:58:48;;;;;;;2.10;1.30;;;57.30;29.30;;;;;;5024123;28;20611;-78
2022/06/27 13:01:14;;;;;;;2.65;1.35;;;57.90;29.40;;;;;;5020487;28;20180;-77
2022/06/27 13:03:40;;;;;;;3.35;1.20;;;58.60;28.30;;;;;;5020996;28;20207;-76
2022/06/27 13:06:07;;;;;;;2.13;1.10;;;58.30;28.60;;;;;;5022866;28;20176;-77